Time;durP1;ratioP1;P1;durP2;ratioP2;P2;SDS_P1;SDS_P2;PMS_P1;PMS_P2;Temp;Humidity;BMP_temperature;BMP_pressure;BME280_temperature;BME280_humidity;BME280_pressure;Samples;Min_cycle;Max_cycle;Signal;HPM_P1;HPM_P2
2022/02/02 00:00:34;;;;;;;19.87;11.48;;;;;;;-5.74;100.00;98249.63;1731739;82;21181;-71
2022/02/02 00:03:10;;;;;;;20.90;12.25;;;;;;;-5.75;100.00;98250.63;1732601;82;21038;-70
2022/02/02 00:05:47;;;;;;;16.12;8.98;;;;;;;-5.77;100.00;98244.77;1732253;82;21501;-69
2022/02/02 00:08:07;;;;;;;17.23;10.18;;;;;;;-5.80;100.00;98253.78;1697110;84;21107;-69
2022/02/02 00:13:12;;;;;;;16.97;10.05;;;;;;;-5.83;100.00;98251.51;1732959;82;21083;-69
2022/02/02 00:23:20;;;;;;;28.15;13.13;;;;;;;-5.99;100.00;98236.86;1740439;81;21024;-69
2022/02/02 00:25:53;;;;;;;;;;;;;;;-6.06;100.00;98228.13;1743067;82;21854;-69
2022/02/02 00:28:19;;;;;;;18.50;11.40;;;;;;;-6.10;100.00;98239.44;1739989;82;20559;-69
2022/02/02 00:30:45;;;;;;;21.70;10.60;;;;;;;-6.11;100.00;98231.27;1740155;82;21108;-68
2022/02/02 00:33:26;;;;;;;32.03;13.28;;;;;;;-6.14;100.00;98232.94;1740518;82;21607;-69
2022/02/02 00:35:57;;;;;;;15.93;10.45;;;;;;;-6.20;100.00;98231.53;1738770;81;21001;-69
2022/02/02 00:38:15;;;;;;;19.05;11.53;;;;;;;-6.24;100.00;98227.67;1738835;82;21128;-69
2022/02/02 00:40:41;;;;;;;18.10;10.40;;;;;;;-6.23;100.00;98218.84;1740822;82;20992;-71
2022/02/02 00:43:08;;;;;;;22.13;9.68;;;;;;;-6.19;100.00;98215.69;1740549;81;20978;-69
2022/02/02 00:45:43;;;;;;;28.05;12.33;;;;;;;-6.11;100.00;98220.81;1740682;82;21036;-69
2022/02/02 00:48:04;;;;;;;26.30;13.60;;;;;;;-6.05;100.00;98214.89;1739438;81;21042;-70
2022/02/02 00:50:30;;;;;;;20.88;13.28;;;;;;;-5.98;100.00;98211.55;1740525;82;22296;-70
2022/02/02 00:52:57;;;;;;;25.20;12.85;;;;;;;-5.93;100.00;98206.55;1740313;82;21543;-69
2022/02/02 00:55:24;;;;;;;26.40;13.43;;;;;;;-5.90;100.00;98198.38;1740491;82;20990;-69
2022/02/02 00:57:51;;;;;;;22.85;13.95;;;;;;;-5.91;100.00;98184.97;1740256;82;21021;-70
2022/02/02 01:00:18;;;;;;;16.00;10.93;;;;;;;-5.94;100.00;98182.26;1740719;82;20973;-68
2022/02/02 01:02:46;;;;;;;28.95;13.68;;;;;;;-5.96;100.00;98178.21;1740653;82;21992;-69
2022/02/02 01:05:14;;;;;;;13.80;9.45;;;;;;;-6.05;100.00;98174.40;1740603;82;21088;-69
2022/02/02 01:10:17;;;;;;;23.27;11.97;;;;;;;-6.14;100.00;98171.55;1719768;81;21005;-68
2022/02/02 01:28:35;;;;;;;22.15;11.90;;;;;;;-6.55;100.00;98152.40;1733044;82;21139;-68
2022/02/02 01:31:02;;;;;;;19.92;11.60;;;;;;;-6.59;100.00;98147.70;1732945;82;20982;-69
2022/02/02 01:33:29;;;;;;;17.40;9.00;;;;;;;-6.58;100.00;98147.54;1733090;82;20987;-69
2022/02/02 01:35:58;;;;;;;26.27;12.18;;;;;;;-6.54;100.00;98146.67;1733160;82;21042;-69
2022/02/02 01:38:28;;;;;;;18.42;11.08;;;;;;;-6.55;100.00;98144.56;1733653;82;20982;-69
2022/02/02 01:40:59;;;;;;;14.10;9.50;;;;;;;-6.59;100.00;98138.10;1733356;82;21950;-69
2022/02/02 01:43:28;;;;;;;24.65;12.33;;;;;;;-6.59;100.00;98130.74;1733169;82;21508;-69
2022/02/02 01:45:59;;;;;;;21.33;11.80;;;;;;;-6.55;100.00;98135.43;1732624;82;21504;-69
2022/02/02 01:48:30;;;;;;;29.15;14.83;;;;;;;-6.55;100.00;98131.52;1731284;82;21544;-68
2022/02/02 01:55:47;;;;;;;19.45;11.55;;;;;;;-6.35;100.00;98138.81;1732666;82;21045;-69
2022/02/02 02:00:59;;;;;;;18.07;11.78;;;;;;;-6.26;100.00;98130.71;1733044;82;21037;-69
2022/02/02 02:03:26;;;;;;;17.27;9.70;;;;;;;-6.20;100.00;98129.67;1733196;82;21021;-69
2022/02/02 02:05:52;;;;;;;13.80;8.65;;;;;;;-6.19;100.00;98130.80;1733209;82;21544;-69
2022/02/02 02:08:19;;;;;;;13.30;9.90;;;;;;;-6.17;100.00;98124.91;1732769;82;20990;-68
2022/02/02 02:10:46;;;;;;;16.37;9.30;;;;;;;-6.11;100.00;98132.50;1733426;82;20998;-69
2022/02/02 02:13:21;;;;;;;15.40;9.15;;;;;;;-6.08;100.00;98124.30;1733073;82;21045;-68
2022/02/02 02:15:44;;;;;;;18.65;9.00;;;;;;;-6.07;100.00;98114.19;1733776;82;20903;-68
2022/02/02 02:18:11;;;;;;;11.73;7.65;;;;;;;-6.07;100.00;98118.10;1734753;82;21082;-68
2022/02/02 02:20:40;;;;;;;18.12;9.48;;;;;;;-6.11;100.00;98111.11;1745064;82;21016;-68
2022/02/02 02:23:07;;;;;;;8.55;7.53;;;;;;;-6.11;100.00;98107.69;1736214;82;20995;-69
2022/02/02 02:25:38;;;;;;;17.00;9.20;;;;;;;-6.08;100.00;98111.23;1735579;82;20891;-68
2022/02/02 02:28:23;;;;;;;14.85;7.53;;;;;;;-6.06;100.00;98106.65;1735855;82;21060;-69
2022/02/02 02:30:57;;;;;;;11.73;8.25;;;;;;;-6.03;100.00;98104.97;1734959;82;21857;-68
2022/02/02 02:36:36;;;;;;;14.47;7.92;;;;;;;-6.01;100.00;98093.84;1680110;85;20943;-68
2022/02/02 02:58:03;;;;;;;13.90;9.73;;;;;;;-5.77;100.00;98086.14;1738578;82;21140;-70
2022/02/02 03:00:32;;;;;;;15.63;10.03;;;;;;;-5.73;100.00;98078.73;1734556;82;21021;-69
2022/02/02 03:49:33;;;;;;;13.88;10.00;;;;;;;-5.45;100.00;98039.59;1703886;84;21051;-68
2022/02/02 03:52:07;;;;;;;19.45;11.85;;;;;;;-5.46;100.00;98033.56;1710865;83;21161;-68
2022/02/02 03:54:42;;;;;;;18.40;10.95;;;;;;;-5.46;100.00;98034.87;1728823;82;20879;-69
2022/02/02 04:02:42;;;;;;;22.85;12.88;;;;;;;-5.49;100.00;98039.14;1731800;82;21005;-69
2022/02/02 04:04:54;;;;;;;35.65;14.75;;;;;;;-5.57;100.00;98048.94;1728863;82;21186;-69
2022/02/02 04:07:22;;;;;;;27.37;15.28;;;;;;;-5.66;100.00;98050.37;1730916;82;20946;-68
2022/02/02 04:09:45;;;;;;;31.45;13.88;;;;;;;-5.76;100.00;98047.23;1730840;82;21455;-68
2022/02/02 04:12:34;;;;;;;37.58;15.23;;;;;;;-5.81;100.00;98052.22;1732075;82;20993;-70
2022/02/02 04:15:55;;;;;;;34.78;17.10;;;;;;;-5.80;100.00;98056.97;1728176;82;21048;-67
2022/02/02 04:54:12;;;;;;;19.48;11.00;;;;;;;-6.37;100.00;98031.12;1734022;82;21463;-69
2022/02/02 04:58:23;;;;;;;76.05;35.98;;;;;;;-6.50;100.00;98029.98;1733701;82;23371;-68
2022/02/02 05:04:01;;;;;;;26.70;16.57;;;;;;;-6.57;100.00;98031.69;1734038;82;20988;-68
2022/02/02 05:08:52;;;;;;;32.78;14.53;;;;;;;-6.59;100.00;98031.56;1733823;82;20992;-70
2022/02/02 05:11:33;;;;;;;33.48;16.62;;;;;;;-6.58;100.00;98034.50;1732684;82;21858;-69
2022/02/02 05:16:44;;;;;;;27.80;15.15;;;;;;;-6.64;100.00;98028.19;1732319;82;20898;-69
2022/02/02 05:19:27;;;;;;;17.92;12.07;;;;;;;-6.63;100.00;98033.73;1728727;82;21035;-69
2022/02/02 05:48:33;;;;;;;33.10;16.80;;;;;;;-6.42;100.00;98034.28;1783530;80;21007;-70
2022/02/02 05:53:22;;;;;;;39.95;19.00;;;;;;;-6.41;100.00;98041.14;1769137;80;21054;-69
2022/02/02 05:55:49;;;;;;;21.60;13.43;;;;;;;-6.39;100.00;98027.89;1769768;81;21528;-70
2022/02/02 05:58:16;;;;;;;29.63;13.88;;;;;;;-6.35;100.00;98035.68;1769576;80;21539;-69
2022/02/02 06:00:43;;;;;;;44.90;19.57;;;;;;;-6.37;100.00;98037.19;1769390;81;20997;-70
2022/02/02 06:03:12;;;;;;;30.12;15.00;;;;;;;-6.35;100.00;98028.65;1769862;81;21500;-69
2022/02/02 06:05:40;;;;;;;24.85;12.93;;;;;;;-6.32;100.00;98020.47;1769598;80;20938;-69
2022/02/02 06:08:14;;;;;;;26.27;14.85;;;;;;;-6.26;100.00;98024.95;1769763;81;20957;-68
2022/02/02 06:10:42;;;;;;;25.40;14.60;;;;;;;-6.16;100.00;98030.38;1762163;81;21085;-69
2022/02/02 06:13:10;;;;;;;29.12;15.98;;;;;;;-6.14;100.00;98022.67;1759872;81;21531;-69
2022/02/02 06:15:37;;;;;;;29.25;14.13;;;;;;;-6.11;100.00;98027.52;1769260;80;21314;-69
2022/02/02 06:18:05;;;;;;;34.75;18.35;;;;;;;-6.05;100.00;98030.72;1770521;79;21003;-68
2022/02/02 06:20:37;;;;;;;35.78;18.10;;;;;;;-6.01;100.00;98030.34;1772573;80;21554;-69
2022/02/02 06:23:15;;;;;;;22.70;12.90;;;;;;;-5.98;100.00;98032.58;1767641;79;21519;-69
2022/02/02 06:25:47;;;;;;;30.60;17.52;;;;;;;-5.99;100.00;98031.77;1733425;79;21078;-68
2022/02/02 06:28:25;;;;;;;43.78;22.25;;;;;;;-5.96;100.00;98036.62;1760164;81;21126;-68
2022/02/02 06:31:01;;;;;;;46.83;22.77;;;;;;;-5.95;100.00;98042.17;1765663;79;20969;-68
2022/02/02 06:33:36;;;;;;;26.65;15.50;;;;;;;-5.94;100.00;98039.86;1762313;79;21016;-70
2022/02/02 06:36:06;;;;;;;21.97;13.50;;;;;;;-5.91;100.00;98041.27;1766957;80;20941;-69
2022/02/02 06:38:33;;;;;;;18.87;11.33;;;;;;;-5.88;100.00;98023.90;1759230;81;21056;-69
2022/02/02 06:41:01;;;;;;;35.13;16.00;;;;;;;-5.82;100.00;98033.63;1737230;82;21523;-68
2022/02/02 06:43:31;;;;;;;24.60;12.40;;;;;;;-5.77;100.00;98034.37;1748947;81;21106;-68
2022/02/02 06:46:00;;;;;;;22.95;12.23;;;;;;;-5.71;100.00;98036.23;1768410;80;21036;-67
2022/02/02 06:48:29;;;;;;;;;;;;;;;-5.65;100.00;98044.64;1771980;80;21024;-69
2022/02/02 06:51:13;;;;;;;29.85;16.62;;;;;;;-5.60;100.00;98028.70;1733394;82;20464;-68
2022/02/02 06:54:02;;;;;;;37.10;16.80;;;;;;;-5.51;100.00;98033.80;1726660;82;22392;-69
2022/02/02 06:57:02;;;;;;;28.95;18.23;;;;;;;-5.45;100.00;98031.24;1725622;81;21059;-68
2022/02/02 07:05:13;;;;;;;32.80;17.67;;;;;;;-5.10;100.00;98033.92;1727636;83;20930;-68
2022/02/02 07:11:04;;;;;;;22.98;13.98;;;;;;;-4.85;100.00;98026.45;1727645;83;20911;-70
2022/02/02 07:32:19;;;;;;;31.23;12.45;;;;;;;-4.16;100.00;98006.42;1771169;81;21036;-69
2022/02/02 07:37:47;;;;;;;25.32;13.58;;;;;;;-3.97;100.00;98012.70;1771658;81;20987;-69
2022/02/02 07:40:17;;;;;;;26.55;16.37;;;;;;;-3.88;100.00;98012.83;1771750;81;21032;-69
2022/02/02 07:42:53;;;;;;;26.87;13.95;;;;;;;-3.77;100.00;98012.26;1771812;81;21004;-68
2022/02/02 07:45:21;;;;;;;32.70;13.08;;;;;;;-3.70;100.00;98013.08;1771494;81;20933;-68
2022/02/02 07:48:00;;;;;;;25.85;14.50;;;;;;;-3.67;100.00;98007.43;1771661;80;21124;-68
2022/02/02 07:50:33;;;;;;;21.05;12.80;;;;;;;-3.58;100.00;98017.20;1766968;81;23591;-69
2022/02/02 07:53:09;;;;;;;16.05;8.65;;;;;;;-3.52;100.00;98008.55;1761157;81;21012;-71
2022/02/02 07:55:36;;;;;;;16.52;9.88;;;;;;;-3.42;100.00;98008.66;1759768;79;21023;-69
2022/02/02 07:58:06;;;;;;;37.30;16.15;;;;;;;-3.34;100.00;98001.38;1753268;80;21660;-71
2022/02/02 08:00:35;;;;;;;26.75;12.95;;;;;;;-3.28;100.00;98008.97;1756999;80;21104;-70
2022/02/02 08:03:12;;;;;;;29.02;14.55;;;;;;;-3.22;100.00;98014.70;1789967;80;21030;-71
2022/02/02 08:05:43;;;;;;;39.92;18.30;;;;;;;-3.08;100.00;98008.95;1785012;80;21031;-70
2022/02/02 08:10:58;;;;;;;35.85;13.83;;;;;;;-2.84;100.00;98000.94;1749393;81;21092;-69
2022/02/02 08:13:37;;;;;;;13.80;9.78;;;;;;;-2.78;100.00;97996.67;1747357;81;20996;-69
2022/02/02 08:16:01;;;;;;;26.10;14.95;;;;;;;-2.78;100.00;98000.61;1740547;82;20998;-70
2022/02/02 08:18:26;;;;;;;12.53;9.58;;;;;;;-2.73;100.00;98008.68;1683360;84;21000;-70
2022/02/02 08:20:53;;;;;;;37.78;17.00;;;;;;;-2.66;100.00;98002.91;1737798;81;21028;-71
2022/02/02 08:23:23;;;;;;;19.07;11.08;;;;;;;-2.60;100.00;98005.52;1727579;82;21579;-69
2022/02/02 08:25:51;;;;;;;39.63;18.15;;;;;;;-2.56;100.00;97990.65;1708729;82;21025;-68
2022/02/02 08:28:19;;;;;;;;;;;;;;;-2.50;100.00;98001.14;1724908;82;21072;-70
2022/02/02 08:30:46;;;;;;;20.57;10.63;;;;;;;-2.45;100.00;98007.89;1722461;82;20123;-69
2022/02/02 08:33:19;;;;;;;31.42;12.82;;;;;;;-2.47;100.00;97998.09;1725297;82;20998;-69
2022/02/02 08:35:50;;;;;;;37.85;14.73;;;;;;;-2.40;100.00;98001.51;1724347;82;21565;-69
2022/02/02 08:38:36;;;;;;;31.20;15.40;;;;;;;-2.46;100.00;97988.38;1718447;82;21321;-68
2022/02/02 08:41:00;;;;;;;21.97;12.05;;;;;;;-2.29;100.00;97990.84;1694946;82;21047;-68
2022/02/02 08:43:39;;;;;;;23.05;12.10;;;;;;;-2.21;100.00;97984.02;1730019;82;21041;-70
2022/02/02 08:46:04;;;;;;;32.70;15.63;;;;;;;-2.17;100.00;97993.11;1728169;82;21056;-68
2022/02/02 08:48:27;;;;;;;46.53;23.10;;;;;;;-2.05;100.00;97981.42;1735304;82;21017;-67
2022/02/02 08:51:04;;;;;;;76.37;36.83;;;;;;;-2.00;100.00;97983.42;1665490;82;21162;-68
2022/02/02 08:58:40;;;;;;;33.88;16.65;;;;;;;-1.80;100.00;97965.69;1719191;83;21020;-67
2022/02/02 09:01:29;;;;;;;40.30;21.93;;;;;;;-1.69;100.00;97974.73;1718837;83;21591;-68
2022/02/02 09:06:40;;;;;;;32.08;20.43;;;;;;;-1.35;100.00;97965.56;1733955;82;21603;-67
2022/02/02 09:09:19;;;;;;;32.13;19.05;;;;;;;-1.24;100.00;97956.66;1733994;82;21035;-67
2022/02/02 09:25:18;;;;;;;42.23;17.67;;;;;;;-0.66;100.00;97963.66;1731443;82;21014;-69
2022/02/02 09:35:55;;;;;;;35.78;18.52;;;;;;;-0.56;100.00;97938.10;1799966;79;20952;-72
2022/02/02 09:38:22;;;;;;;33.75;14.30;;;;;;;-0.57;100.00;97932.52;1749573;81;21561;-70
2022/02/02 09:43:28;;;;;;;138.97;62.48;;;;;;;-0.56;100.00;97913.59;1764606;81;21096;-69
2022/02/02 09:46:01;;;;;;;92.53;41.35;;;;;;;-0.64;100.00;97933.11;1761952;81;20979;-66
2022/02/02 09:48:36;;;;;;;180.57;71.22;;;;;;;-0.66;100.00;97928.60;1766668;81;21514;-70
2022/02/02 09:51:03;;;;;;;101.12;48.10;;;;;;;-0.57;100.00;97918.55;1760268;81;20984;-69
2022/02/02 09:53:42;;;;;;;68.28;32.23;;;;;;;-0.55;100.00;97913.34;1764867;81;20879;-67
2022/02/02 10:09:12;;;;;;;154.38;73.25;;;;;;;-0.34;100.00;97909.92;1733996;81;21099;-67
2022/02/02 10:14:33;;;;;;;43.50;16.97;;;;;;;-0.11;100.00;97907.91;1695468;82;20190;-69
2022/02/02 10:17:03;;;;;;;;;;;;;;;-0.16;100.00;97892.75;1779794;80;21082;-67
2022/02/02 10:19:36;;;;;;;31.15;17.23;;;;;;;-0.08;100.00;97899.53;1726476;81;20138;-69
2022/02/02 10:22:28;;;;;;;45.58;26.23;;;;;;;-0.09;100.00;97893.45;1788151;80;21152;-66
2022/02/02 10:25:00;;;;;;;47.80;27.55;;;;;;;-0.08;100.00;97884.50;1784182;80;20872;-68
2022/02/02 10:27:36;;;;;;;54.80;29.50;;;;;;;-0.04;100.00;97884.35;1786853;80;21063;-68
2022/02/02 10:30:10;;;;;;;27.27;16.82;;;;;;;-0.07;100.00;97888.77;1788044;79;21569;-67
2022/02/02 10:32:43;;;;;;;58.38;34.20;;;;;;;-0.09;100.00;97872.88;1788373;80;21067;-67
2022/02/02 10:35:13;;;;;;;37.55;20.27;;;;;;;-0.13;100.00;97875.16;1788087;80;22668;-67
2022/02/02 10:37:46;;;;;;;23.87;10.88;;;;;;;-0.11;100.00;97877.58;1754299;80;21534;-66
2022/02/02 10:40:09;;;;;;;52.50;29.37;;;;;;;-0.11;100.00;97878.89;1787208;80;20975;-67
2022/02/02 10:42:48;;;;;;;28.87;16.70;;;;;;;0.01;100.00;97879.72;1788602;80;20988;-69
2022/02/02 10:45:25;;;;;;;30.60;17.70;;;;;;;0.14;100.00;97874.23;1787052;80;21027;-69
2022/02/02 10:47:58;;;;;;;16.75;10.53;;;;;;;0.24;100.00;97862.31;1787736;80;21087;-68
2022/02/02 10:50:30;;;;;;;47.83;23.05;;;;;;;0.14;100.00;97865.52;1776585;80;21513;-69
2022/02/02 10:53:24;;;;;;;81.08;41.10;;;;;;;0.16;100.00;97868.21;1786583;80;22110;-66
2022/02/02 10:55:56;;;;;;;130.70;66.25;;;;;;;0.29;100.00;97870.34;1781599;80;25958;-69
2022/02/02 11:06:37;;;;;;;35.80;19.15;;;;;;;0.70;100.00;97862.03;1766783;80;21489;-68
2022/02/02 11:09:07;;;;;;;29.77;13.72;;;;;;;0.72;100.00;97858.13;1758384;80;21579;-69
2022/02/02 11:11:46;;;;;;;85.45;57.53;;;;;;;0.80;100.00;97852.48;1756987;81;20983;-69
2022/02/02 11:15:03;;;;;;;50.55;30.72;;;;;;;0.95;100.00;97853.31;1729927;81;21150;-69
2022/02/02 11:17:59;;;;;;;69.35;37.78;;;;;;;0.96;98.50;97855.46;1760175;80;20963;-69
2022/02/02 11:20:38;;;;;;;57.38;38.98;;;;;;;1.01;98.75;97851.59;1788183;80;20939;-68
2022/02/02 11:23:10;;;;;;;23.27;13.28;;;;;;;1.15;97.72;97850.80;1788334;80;21551;-69
2022/02/02 11:25:39;;;;;;;55.17;31.93;;;;;;;1.11;97.34;97853.12;1786460;80;21079;-71
2022/02/02 11:28:27;;;;;;;44.42;23.95;;;;;;;1.24;97.70;97855.48;1776330;80;21818;-68
2022/02/02 11:31:05;;;;;;;28.83;13.58;;;;;;;1.40;95.45;97854.47;1763657;80;20998;-70
2022/02/02 11:33:53;;;;;;;21.37;12.58;;;;;;;1.17;95.21;97842.91;1761871;80;20978;-67
2022/02/02 11:36:40;;;;;;;30.88;13.05;;;;;;;1.04;96.69;97854.56;1757430;81;21029;-69
2022/02/02 11:39:38;;;;;;;31.45;15.83;;;;;;;0.95;96.72;97853.31;1766189;80;21450;-70
2022/02/02 11:42:18;;;;;;;32.08;14.38;;;;;;;1.04;96.93;97847.95;1718698;83;21166;-69
2022/02/02 11:50:03;;;;;;;31.15;12.65;;;;;;;1.41;92.69;97848.93;1711272;83;21029;-70
2022/02/02 11:52:46;;;;;;;30.25;16.75;;;;;;;1.29;93.25;97837.59;1721384;83;21545;-69
2022/02/02 11:55:33;;;;;;;31.93;15.35;;;;;;;1.48;93.19;97840.34;1717349;81;21550;-70
2022/02/02 12:00:45;;;;;;;37.95;22.77;;;;;;;1.41;93.74;97852.89;1736032;82;21585;-70
2022/02/02 12:06:03;;;;;;;73.25;38.23;;;;;;;1.32;95.02;97847.69;1717588;81;21066;-69
2022/02/02 12:08:54;;;;;;;32.03;16.12;;;;;;;1.17;95.32;97858.77;1643849;81;21017;-71
2022/02/02 12:50:00;;;;;;;30.75;16.12;;;;;;;0.83;100.00;97867.05;1744998;82;21222;-70
2022/02/02 12:58:08;;;;;;;14.10;10.03;;;;;;;0.81;97.89;97866.52;1747807;80;21482;-68
2022/02/02 13:03:00;;;;;;;37.58;21.60;;;;;;;0.80;98.37;97875.45;1739659;82;21089;-68
2022/02/02 13:05:27;;;;;;;;;;;;;;;0.82;98.24;97864.94;1742180;82;21500;-69
2022/02/02 13:07:57;;;;;;;29.42;17.65;;;;;;;0.82;95.70;97862.83;1739676;82;20173;-68
2022/02/02 13:10:27;;;;;;;32.83;18.12;;;;;;;0.80;96.45;97867.53;1739708;82;21589;-71
2022/02/02 13:13:18;;;;;;;24.02;15.00;;;;;;;0.75;95.49;97858.98;1715089;82;21107;-69
2022/02/02 13:15:50;;;;;;;31.42;19.40;;;;;;;0.67;96.56;97849.30;1713074;81;21105;-70
2022/02/02 13:21:06;;;;;;;19.02;11.30;;;;;;;0.63;97.08;97859.50;1728366;83;20120;-70
2022/02/02 13:26:51;;;;;;;31.80;16.65;;;;;;;0.59;98.04;97872.38;1665662;85;21041;-73
2022/02/02 13:29:32;;;;;;;28.73;15.85;;;;;;;0.59;97.46;97857.86;1635580;84;21077;-70
2022/02/02 13:37:55;;;;;;;35.08;16.67;;;;;;;0.39;99.25;97875.86;1677531;85;20191;-70
2022/02/02 14:01:58;;;;;;;47.80;24.37;;;;;;;-0.04;100.00;97868.53;1724375;82;21629;-71
2022/02/02 14:09:54;;;;;;;37.73;21.82;;;;;;;-0.12;100.00;97873.31;1722070;83;21150;-70
2022/02/02 14:26:11;;;;;;;31.93;18.23;;;;;;;-0.24;100.00;97882.02;1784173;80;20952;-72
2022/02/02 14:31:26;;;;;;;38.48;18.87;;;;;;;-0.23;100.00;97894.16;1781209;80;21040;-70
2022/02/02 14:33:59;;;;;;;42.35;20.02;;;;;;;-0.26;100.00;97889.34;1781325;80;21036;-69
2022/02/02 14:36:31;;;;;;;36.17;19.77;;;;;;;-0.27;100.00;97893.02;1781368;80;21186;-71
2022/02/02 14:39:13;;;;;;;44.20;22.00;;;;;;;-0.26;100.00;97891.98;1780788;80;20987;-70
2022/02/02 14:41:40;;;;;;;49.48;23.18;;;;;;;-0.27;100.00;97897.45;1779819;80;21436;-71
2022/02/02 14:44:13;;;;;;;43.42;15.78;;;;;;;-0.29;100.00;97897.70;1787694;79;20978;-71
2022/02/02 14:46:39;;;;;;;56.08;26.12;;;;;;;-0.31;100.00;97898.95;1788694;79;21645;-70
2022/02/02 14:49:10;;;;;;;28.80;14.68;;;;;;;-0.31;100.00;97902.39;1787201;79;21110;-68
2022/02/02 15:29:24;;;;;;;48.98;27.37;;;;;;;-0.57;100.00;97929.09;1770460;80;21946;-72
2022/02/02 15:31:44;;;;;;;47.27;19.20;;;;;;;-0.54;100.00;97931.27;1755979;80;20991;-71
2022/02/02 15:34:17;;;;;;;45.85;25.00;;;;;;;-0.57;100.00;97924.61;1745432;80;21006;-69
2022/02/02 15:39:24;;;;;;;36.98;20.68;;;;;;;-0.60;100.00;97938.24;1747245;82;21447;-68
2022/02/02 15:58:29;;;;;;;51.18;26.05;;;;;;;-0.87;100.00;97943.02;1760173;80;20920;-75
2022/02/02 16:03:44;;;;;;;111.65;57.55;;;;;;;-0.88;100.00;97946.68;1748830;80;21012;-71
2022/02/02 16:06:16;;;;;;;65.28;35.65;;;;;;;-0.89;100.00;97951.12;1747428;82;21042;-71
2022/02/02 16:08:43;;;;;;;60.20;31.42;;;;;;;-0.92;100.00;97948.13;1756614;80;21130;-74
2022/02/02 16:11:25;;;;;;;80.77;42.20;;;;;;;-0.94;100.00;97944.39;1747870;80;20920;-73
2022/02/02 16:13:51;;;;;;;63.60;37.17;;;;;;;-0.95;100.00;97945.94;1747273;80;20952;-70
2022/02/02 16:18:58;;;;;;;55.55;35.60;;;;;;;-0.97;100.00;97944.03;1748424;81;20165;-71
2022/02/02 16:37:43;;;;;;;43.45;18.20;;;;;;;-0.96;100.00;97954.33;1782209;80;20956;-70
2022/02/02 16:40:13;;;;;;;;;;;;;;;-0.97;100.00;97956.69;1785942;78;20993;-73
2022/02/02 16:43:07;;;;;;;41.88;19.55;;;;;;;-0.95;100.00;97952.02;1782653;80;20182;-69
2022/02/02 16:45:25;;;;;;;87.80;45.08;;;;;;;-0.94;100.00;97954.92;1778721;80;21507;-72
2022/02/02 16:47:53;;;;;;;52.23;29.48;;;;;;;-0.90;100.00;97953.99;1782288;80;21783;-71
2022/02/02 16:50:24;;;;;;;;;;;;;;;-0.90;100.00;97953.47;1785732;78;20960;-73
2022/02/02 16:52:52;;;;;;;;;;;;;;;-0.89;100.00;97959.02;1789333;80;20457;-72
2022/02/02 16:55:34;;;;;;;;;;;;;;;-0.87;100.00;97961.45;1789341;78;20101;-72
2022/02/02 16:57:58;;;;;;;;;;;;;;;-0.86;100.00;97959.09;1784890;79;20137;-71
2022/02/02 17:40:40;;;;;;;36.10;17.05;;;;;;;-0.72;100.00;97961.88;1786232;80;21129;-72
2022/02/02 18:02:33;;;;;;;52.03;30.80;;;;;;;-0.68;100.00;97964.38;1811107;79;21040;-70
2022/02/02 18:21:09;;;;;;;22.75;14.73;;;;;;;-0.60;100.00;97961.16;1782008;80;21140;-69
2022/02/02 18:26:29;;;;;;;21.70;13.85;;;;;;;-0.60;100.00;97958.53;1720683;81;21039;-72
2022/02/02 18:29:05;;;;;;;56.05;28.75;;;;;;;-0.58;100.00;97969.66;1723464;81;21006;-71
2022/02/02 18:31:47;;;;;;;37.93;21.23;;;;;;;-0.57;100.00;97969.94;1723838;81;21171;-75
2022/02/02 18:37:15;;;;;;;29.50;16.30;;;;;;;-0.57;100.00;97960.72;1728039;82;21027;-76
2022/02/02 18:54:51;;;;;;;38.15;21.52;;;;;;;-0.53;100.00;97964.53;1712525;81;21058;-68
2022/02/02 18:57:20;;;;;;;29.52;17.42;;;;;;;-0.52;100.00;97972.20;1723629;83;20957;-71
2022/02/02 19:05:00;;;;;;;43.75;21.07;;;;;;;-0.52;100.00;97985.89;1795727;78;20906;-74
2022/02/02 19:07:45;;;;;;;33.83;14.05;;;;;;;-0.50;100.00;97982.53;1777331;79;21016;-71
2022/02/02 19:31:06;;;;;;;38.30;21.37;;;;;;;-0.45;100.00;97992.69;1769034;80;20921;-73
2022/02/02 19:40:31;;;;;;;41.95;20.25;;;;;;;-0.39;100.00;98013.92;1796855;79;21609;-70
2022/02/02 19:56:55;;;;;;;31.68;19.12;;;;;;;-0.36;100.00;98010.88;1803670;79;21085;-67
2022/02/02 20:09:55;;;;;;;37.42;18.98;;;;;;;-0.37;100.00;98011.87;1783228;78;20973;-70
2022/02/02 20:12:19;;;;;;;44.05;22.25;;;;;;;-0.36;100.00;98010.88;1779125;78;21037;-69
2022/02/02 20:14:45;;;;;;;40.20;20.35;;;;;;;-0.36;100.00;98010.35;1783321;79;21028;-68
2022/02/02 20:17:15;;;;;;;36.58;21.37;;;;;;;-0.34;100.00;98016.22;1784000;80;20992;-72
2022/02/02 20:19:53;;;;;;;30.80;16.17;;;;;;;-0.32;100.00;98008.89;1786876;79;21132;-69
2022/02/02 20:22:18;;;;;;;40.15;19.92;;;;;;;-0.32;100.00;98003.62;1786289;78;21548;-69
2022/02/02 20:24:53;;;;;;;26.40;15.85;;;;;;;-0.28;100.00;98015.84;1782531;80;21086;-71
2022/02/02 20:27:15;;;;;;;38.00;22.37;;;;;;;-0.28;100.00;98010.05;1777389;80;20947;-69
2022/02/02 20:29:42;;;;;;;35.17;20.60;;;;;;;-0.26;100.00;98015.91;1757410;79;20932;-72
2022/02/02 20:32:08;;;;;;;36.28;19.57;;;;;;;-0.26;100.00;98008.52;1752927;80;21467;-70
2022/02/02 20:34:36;;;;;;;33.38;18.80;;;;;;;-0.24;100.00;98022.28;1752401;81;20884;-70
2022/02/02 20:37:03;;;;;;;50.40;22.52;;;;;;;-0.23;100.00;98023.88;1752334;81;21525;-70
2022/02/02 20:40:05;;;;;;;;;;;;;;;;;;;;;
2022/02/02 20:42:34;;;;;;;35.75;23.20;;;;;;;-0.26;100.00;98029.09;1721335;82;21051;-70
2022/02/02 21:00:20;;;;;;;68.40;44.27;;;;;;;-0.26;100.00;98037.00;1708135;82;21023;-70
2022/02/02 21:01:48;;;;;;;34.20;17.65;;;;;;;-0.52;100.00;98039.92;1725356;82;21016;-69
2022/02/02 21:03:40;;;;;;;30.25;18.67;;;;;;;-0.55;100.00;98043.80;1723097;82;21012;-70
2022/02/02 21:11:36;;;;;;;34.18;22.22;;;;;;;-0.52;100.00;98046.52;1722285;82;21937;-69
2022/02/02 21:13:54;;;;;;;37.75;25.15;;;;;;;-0.49;100.00;98050.02;1721824;82;21083;-68
2022/02/02 21:16:27;;;;;;;36.45;21.97;;;;;;;-0.47;100.00;98052.73;1738243;80;20932;-70
2022/02/02 21:18:57;;;;;;;32.03;17.10;;;;;;;-0.40;100.00;98048.72;1744613;81;21552;-69
2022/02/02 21:21:36;;;;;;;38.00;24.70;;;;;;;-0.38;100.00;98051.14;1738305;80;21044;-70
2022/02/02 21:26:35;;;;;;;29.70;18.82;;;;;;;-0.35;100.00;98052.02;1752078;80;20962;-70
2022/02/02 21:29:01;;;;;;;17.75;12.00;;;;;;;-0.31;100.00;98061.91;1791813;78;21473;-69
2022/02/02 21:31:27;;;;;;;28.98;18.73;;;;;;;-0.32;100.00;98058.98;1778623;78;21067;-72
2022/02/02 21:33:54;;;;;;;28.77;16.35;;;;;;;-0.29;100.00;98061.18;1791877;79;20981;-70
2022/02/02 21:36:21;;;;;;;32.33;18.10;;;;;;;-0.28;100.00;98067.25;1783671;78;21512;-71
2022/02/02 21:39:04;;;;;;;26.23;16.80;;;;;;;-0.25;100.00;98061.53;1787925;78;20981;-70
2022/02/02 21:41:35;;;;;;;23.38;10.43;;;;;;;-0.26;100.00;98068.64;1799449;79;21072;-69
2022/02/02 21:44:04;;;;;;;26.52;15.68;;;;;;;-0.23;100.00;98070.83;1798456;79;20960;-70
2022/02/02 21:46:35;;;;;;;21.57;12.78;;;;;;;-0.21;100.00;98066.66;1793493;79;20941;-68
2022/02/02 21:49:15;;;;;;;25.72;13.65;;;;;;;-0.19;100.00;98077.01;1782140;79;21789;-70
2022/02/02 21:51:50;;;;;;;26.62;17.15;;;;;;;-0.17;100.00;98078.39;1781520;79;20976;-72
2022/02/02 21:54:08;;;;;;;;;;;;;;;-0.15;100.00;98076.84;1795692;79;20968;-70
2022/02/02 21:56:37;;;;;;;32.67;18.52;;;;;;;-0.14;100.00;98068.72;1811861;79;20145;-68
2022/02/02 21:59:04;;;;;;;33.65;18.48;;;;;;;-0.13;100.00;98079.55;1811651;79;21020;-70
2022/02/02 22:01:30;;;;;;;46.50;24.82;;;;;;;-0.15;100.00;98080.80;1811772;79;21384;-71
2022/02/02 22:03:57;;;;;;;39.23;19.05;;;;;;;-0.16;100.00;98085.79;1812089;79;21495;-68
2022/02/02 22:06:23;;;;;;;35.23;19.05;;;;;;;-0.17;100.00;98089.44;1811983;79;21427;-69
2022/02/02 22:08:50;;;;;;;34.05;20.82;;;;;;;-0.16;100.00;98095.02;1812068;79;20893;-71
2022/02/02 22:11:17;;;;;;;37.17;21.10;;;;;;;-0.16;100.00;98099.77;1812097;79;21490;-71
2022/02/02 22:13:48;;;;;;;32.45;17.10;;;;;;;-0.17;100.00;98103.45;1812247;79;21139;-70
2022/02/02 22:16:20;;;;;;;37.63;21.77;;;;;;;-0.18;100.00;98099.18;1811934;78;20849;-69
2022/02/02 22:18:47;;;;;;;36.98;18.60;;;;;;;-0.18;100.00;98104.98;1811880;78;21550;-69